Time;durP1;ratioP1;P1;durP2;ratioP2;P2;SDS_P1;SDS_P2;PMS_P1;PMS_P2;Temp;Humidity;BMP_temperature;BMP_pressure;BME280_temperature;BME280_humidity;BME280_pressure;Samples;Min_cycle;Max_cycle;Signal;HPM_P1;HPM_P2
2022/04/27 00:00:19;;;;;;;2.45;1.58;;;11.00;50.70;;;;;;4885639;29;20231;-80
2022/04/27 00:02:45;;;;;;;2.65;1.40;;;10.90;50.70;;;;;;4898574;29;20040;-79
2022/04/27 00:05:11;;;;;;;2.00;1.30;;;10.90;50.70;;;;;;4898953;29;20106;-79
2022/04/27 00:07:36;;;;;;;2.20;1.42;;;10.80;50.80;;;;;;4902237;29;20028;-80
2022/04/27 00:10:05;;;;;;;1.80;1.40;;;10.70;50.90;;;;;;4906609;29;20040;-80
2022/04/27 00:12:30;;;;;;;2.42;1.70;;;10.70;51.10;;;;;;4892234;29;20426;-80
2022/04/27 00:14:56;;;;;;;1.83;1.30;;;10.70;51.10;;;;;;4887641;29;20032;-79
2022/04/27 00:17:22;;;;;;;2.50;1.30;;;10.60;51.20;;;;;;4920872;29;20131;-80
2022/04/27 00:19:47;;;;;;;1.70;1.37;;;10.50;51.30;;;;;;4907475;29;20063;-79
2022/04/27 00:22:14;;;;;;;2.22;1.42;;;10.40;51.30;;;;;;4892646;29;20058;-80
2022/04/27 00:24:40;;;;;;;1.73;1.20;;;10.40;51.40;;;;;;4906954;29;20042;-80
2022/04/27 00:27:06;;;;;;;3.30;1.40;;;10.30;51.60;;;;;;4893084;29;20040;-79
2022/04/27 00:29:32;;;;;;;2.60;1.40;;;10.30;51.80;;;;;;4885308;29;20548;-79
2022/04/27 00:31:58;;;;;;;2.55;1.33;;;10.20;52.00;;;;;;4893326;29;20051;-80
2022/04/27 00:34:23;;;;;;;2.70;1.33;;;10.20;52.10;;;;;;4902037;29;20040;-80
2022/04/27 00:36:49;;;;;;;2.53;1.30;;;10.10;52.20;;;;;;4894383;29;20266;-80
2022/04/27 00:39:16;;;;;;;1.47;1.23;;;10.10;52.40;;;;;;4903055;29;20043;-79
2022/04/27 00:41:58;;;;;;;1.80;1.27;;;10.10;52.60;;;;;;4900342;29;20323;-80
2022/04/27 00:44:25;;;;;;;2.60;1.42;;;10.10;52.70;;;;;;4890087;29;20046;-79
2022/04/27 00:46:51;;;;;;;2.08;1.23;;;10.10;53.10;;;;;;4877457;29;20227;-79
2022/04/27 00:49:16;;;;;;;1.90;1.30;;;10.10;53.10;;;;;;4900489;29;20040;-79
2022/04/27 00:51:42;;;;;;;2.17;1.48;;;10.10;53.60;;;;;;4886905;29;20458;-79
2022/04/27 00:54:08;;;;;;;1.90;1.30;;;10.10;53.50;;;;;;4904061;29;20068;-80
2022/04/27 00:56:34;;;;;;;1.75;1.23;;;10.10;53.50;;;;;;4899602;29;20059;-79
2022/04/27 00:59:00;;;;;;;2.03;1.40;;;10.20;53.60;;;;;;4900989;29;20115;-80
2022/04/27 01:01:26;;;;;;;2.70;1.43;;;10.20;53.70;;;;;;4886235;29;20044;-79
2022/04/27 01:03:51;;;;;;;2.40;1.70;;;10.20;53.80;;;;;;4899071;29;20045;-80
2022/04/27 01:06:17;;;;;;;1.88;1.38;;;10.30;54.00;;;;;;4906959;29;20063;-80
2022/04/27 01:08:43;;;;;;;1.67;1.30;;;10.30;54.00;;;;;;4890157;29;20047;-80
2022/04/27 01:11:09;;;;;;;2.60;1.50;;;10.30;54.10;;;;;;4903496;29;20044;-80
2022/04/27 01:13:37;;;;;;;2.30;1.42;;;10.30;54.20;;;;;;4883180;29;20032;-79
2022/04/27 01:16:03;;;;;;;2.10;1.50;;;10.30;54.10;;;;;;4903447;29;20028;-80
2022/04/27 01:18:29;;;;;;;2.35;1.40;;;10.30;54.20;;;;;;4883088;29;20199;-80
2022/04/27 01:20:54;;;;;;;2.93;1.50;;;10.40;54.20;;;;;;4895397;29;20270;-80
2022/04/27 01:23:20;;;;;;;2.00;1.40;;;10.40;54.20;;;;;;4905115;29;20041;-80
2022/04/27 01:25:49;;;;;;;2.30;1.40;;;10.40;54.20;;;;;;4883302;29;20230;-80
2022/04/27 01:28:18;;;;;;;1.77;1.30;;;10.50;54.30;;;;;;4902205;29;20040;-80
2022/04/27 01:30:45;;;;;;;2.80;1.70;;;10.50;54.30;;;;;;4893493;29;20115;-80
2022/04/27 01:33:12;;;;;;;2.67;1.43;;;10.50;54.30;;;;;;4884828;29;20035;-80
2022/04/27 01:35:38;;;;;;;2.17;1.48;;;10.50;54.30;;;;;;4898276;29;20036;-80
2022/04/27 01:38:03;;;;;;;2.75;1.85;;;10.50;54.40;;;;;;4900796;29;20417;-79
2022/04/27 01:40:29;;;;;;;3.35;1.88;;;10.40;54.30;;;;;;4890734;29;20027;-80
2022/04/27 01:42:55;;;;;;;2.10;1.60;;;10.40;54.50;;;;;;4891864;29;20557;-79
2022/04/27 01:45:21;;;;;;;2.13;1.58;;;10.40;54.50;;;;;;4902664;29;20040;-79
2022/04/27 01:47:47;;;;;;;2.53;1.60;;;10.40;54.50;;;;;;4871099;29;20267;-79
2022/04/27 01:50:13;;;;;;;2.37;1.60;;;10.40;54.50;;;;;;4904019;29;20377;-80
2022/04/27 01:55:23;;;;;;;3.22;1.77;;;10.40;54.70;;;;;;4899262;29;20409;-79
2022/04/27 01:57:48;;;;;;;2.80;1.53;;;10.40;54.50;;;;;;4901788;29;20220;-80
2022/04/27 02:00:15;;;;;;;3.25;1.80;;;10.30;54.50;;;;;;4893804;29;20127;-80
2022/04/27 02:02:41;;;;;;;1.83;1.50;;;10.30;54.60;;;;;;4879566;29;20528;-79
2022/04/27 02:05:07;;;;;;;2.47;1.50;;;10.30;54.60;;;;;;4874315;29;20043;-80
2022/04/27 02:07:33;;;;;;;2.50;1.70;;;10.20;54.60;;;;;;4896472;29;20044;-80
2022/04/27 02:09:58;;;;;;;2.43;1.80;;;10.20;54.60;;;;;;4895625;29;20047;-80
2022/04/27 02:12:24;;;;;;;2.50;1.40;;;10.20;54.70;;;;;;4902022;29;20114;-79
2022/04/27 02:14:50;;;;;;;3.03;1.90;;;10.10;54.70;;;;;;4902766;29;20024;-79
2022/04/27 02:17:16;;;;;;;2.90;1.88;;;10.10;54.80;;;;;;4894898;29;20492;-79
2022/04/27 02:19:42;;;;;;;3.40;1.70;;;10.00;54.90;;;;;;4882404;29;20493;-79
2022/04/27 02:22:07;;;;;;;3.00;1.80;;;10.00;55.00;;;;;;4898209;29;20032;-79
2022/04/27 02:24:33;;;;;;;3.43;1.90;;;9.90;55.10;;;;;;4892178;29;20051;-80
2022/04/27 02:26:59;;;;;;;2.70;1.85;;;9.90;55.10;;;;;;4893025;29;20587;-79
2022/04/27 02:29:24;;;;;;;2.70;1.63;;;9.90;55.40;;;;;;4904038;29;20047;-80
2022/04/27 02:31:51;;;;;;;2.80;1.85;;;9.80;55.40;;;;;;4900191;29;20293;-79
2022/04/27 02:34:16;;;;;;;4.63;1.73;;;9.80;55.40;;;;;;4893907;29;20028;-79
2022/04/27 02:36:42;;;;;;;2.60;1.80;;;9.80;55.40;;;;;;4878737;29;20211;-79
2022/04/27 02:39:08;;;;;;;4.55;1.92;;;9.70;55.40;;;;;;4895073;29;20161;-80
2022/04/27 02:41:33;;;;;;;2.70;1.70;;;9.70;55.50;;;;;;4892138;29;20047;-79
2022/04/27 02:43:59;;;;;;;2.80;2.00;;;9.60;55.50;;;;;;4899355;29;20055;-80
2022/04/27 02:46:25;;;;;;;3.13;1.80;;;9.60;55.60;;;;;;4903244;29;20044;-80
2022/04/27 02:51:48;;;;;;;3.30;1.97;;;9.60;55.70;;;;;;4879471;29;20290;-79
2022/04/27 02:54:15;;;;;;;3.28;1.88;;;9.50;55.70;;;;;;4899505;29;20213;-80
2022/04/27 02:56:40;;;;;;;3.78;1.90;;;9.50;55.70;;;;;;4893376;29;20214;-79
2022/04/27 02:59:06;;;;;;;3.53;2.20;;;9.40;55.70;;;;;;4902393;29;20055;-79
2022/04/27 03:01:31;;;;;;;4.22;2.28;;;9.40;55.80;;;;;;4895592;29;20382;-79
2022/04/27 03:03:57;;;;;;;3.93;2.20;;;9.40;56.20;;;;;;4883191;29;20297;-79
2022/04/27 03:06:23;;;;;;;3.00;2.00;;;9.30;56.00;;;;;;4903592;29;20123;-80
2022/04/27 03:08:48;;;;;;;3.13;1.85;;;9.30;56.10;;;;;;4872530;29;20100;-79
2022/04/27 03:11:14;;;;;;;2.57;1.63;;;9.30;56.20;;;;;;4899377;29;20047;-80
2022/04/27 03:13:39;;;;;;;3.23;2.00;;;9.20;56.20;;;;;;4893811;29;20043;-79
2022/04/27 03:16:05;;;;;;;3.83;2.10;;;9.20;56.20;;;;;;4908096;29;20353;-79
2022/04/27 03:18:31;;;;;;;2.85;1.80;;;9.20;56.30;;;;;;4898744;29;20032;-80
2022/04/27 03:20:56;;;;;;;3.63;2.00;;;9.10;56.20;;;;;;4897930;29;20134;-80
2022/04/27 03:23:23;;;;;;;3.25;1.90;;;9.00;56.20;;;;;;4886521;29;20489;-79
2022/04/27 03:25:48;;;;;;;4.33;1.73;;;9.00;56.10;;;;;;4889891;29;20162;-80
2022/04/27 03:28:14;;;;;;;3.10;1.95;;;9.00;56.10;;;;;;4896076;29;20044;-79
2022/04/27 03:30:40;;;;;;;2.87;1.70;;;8.90;56.20;;;;;;4904668;29;20811;-80
2022/04/27 03:33:05;;;;;;;3.33;1.92;;;8.80;56.20;;;;;;4904136;29;20039;-80
2022/04/27 03:35:31;;;;;;;2.63;1.70;;;8.80;56.20;;;;;;4896995;29;20037;-80
2022/04/27 03:37:58;;;;;;;3.47;1.90;;;8.70;56.30;;;;;;4884347;29;21326;-79
2022/04/27 03:40:24;;;;;;;4.10;1.88;;;8.70;56.40;;;;;;4893644;29;20035;-80
2022/04/27 03:42:50;;;;;;;2.60;1.87;;;8.60;56.50;;;;;;4896631;29;20044;-79
2022/04/27 03:45:19;;;;;;;2.80;1.83;;;8.60;56.60;;;;;;4897172;29;20181;-80
2022/04/27 03:47:46;;;;;;;3.30;1.77;;;8.50;56.60;;;;;;4921473;28;20310;-80
2022/04/27 03:50:11;;;;;;;3.65;1.85;;;8.50;56.70;;;;;;4906944;29;20050;-79
2022/04/27 03:52:37;;;;;;;2.90;1.73;;;8.50;56.80;;;;;;4874539;29;20032;-79
2022/04/27 03:55:03;;;;;;;2.93;1.97;;;8.40;56.80;;;;;;4896790;29;20091;-79
2022/04/27 03:57:28;;;;;;;3.15;1.58;;;8.40;56.90;;;;;;4893481;29;20055;-79
2022/04/27 03:59:54;;;;;;;2.83;1.80;;;8.40;56.80;;;;;;4895225;29;20294;-79
2022/04/27 04:02:20;;;;;;;3.23;1.50;;;8.30;56.80;;;;;;4903581;29;20416;-79
2022/04/27 04:04:46;;;;;;;3.38;2.00;;;8.30;57.00;;;;;;4895082;29;20050;-80
2022/04/27 04:07:12;;;;;;;3.58;1.90;;;8.30;57.00;;;;;;4895967;29;20070;-79
2022/04/27 04:09:38;;;;;;;3.40;1.90;;;8.30;57.00;;;;;;4874608;29;20032;-79
2022/04/27 04:12:05;;;;;;;2.45;1.70;;;8.20;57.10;;;;;;4904392;29;20396;-79
2022/04/27 04:14:31;;;;;;;3.28;1.85;;;8.20;57.10;;;;;;4892667;29;20445;-79
2022/04/27 04:16:56;;;;;;;3.77;2.20;;;8.20;57.20;;;;;;4905340;29;20028;-79
2022/04/27 04:19:22;;;;;;;3.50;1.80;;;8.10;57.30;;;;;;4893927;29;20548;-79
2022/04/27 04:21:48;;;;;;;3.73;1.90;;;8.10;57.30;;;;;;4895036;29;20079;-79
2022/04/27 04:24:13;;;;;;;2.47;1.65;;;8.10;57.30;;;;;;4873213;29;20620;-80
2022/04/27 04:29:23;;;;;;;4.70;2.28;;;8.10;57.40;;;;;;4893310;29;20079;-79
2022/04/27 04:31:48;;;;;;;3.43;1.93;;;8.10;57.40;;;;;;4892652;29;20255;-79
2022/04/27 04:34:14;;;;;;;3.60;2.00;;;8.00;57.60;;;;;;4889718;29;20811;-79
2022/04/27 04:36:40;;;;;;;4.70;2.17;;;8.00;57.70;;;;;;4890600;29;20315;-79
2022/04/27 04:39:05;;;;;;;4.38;2.45;;;8.00;57.80;;;;;;4882171;29;20029;-80
2022/04/27 04:41:31;;;;;;;3.93;2.53;;;8.00;57.90;;;;;;4901915;29;20099;-79
2022/04/27 04:43:57;;;;;;;4.50;2.50;;;8.00;58.00;;;;;;4895759;29;20652;-79
2022/04/27 04:46:23;;;;;;;4.80;2.50;;;8.00;58.10;;;;;;4897253;29;20055;-80
2022/04/27 04:48:48;;;;;;;5.38;2.75;;;8.10;58.30;;;;;;4890085;29;20024;-79
2022/04/27 04:51:14;;;;;;;4.13;2.40;;;8.00;58.40;;;;;;4903987;29;20397;-79
2022/04/27 04:53:39;;;;;;;3.70;2.23;;;8.10;58.60;;;;;;4870895;29;20322;-79
2022/04/27 04:56:05;;;;;;;4.33;2.37;;;8.10;58.70;;;;;;4904551;29;20288;-79
2022/04/27 04:58:31;;;;;;;3.33;2.30;;;8.10;58.80;;;;;;4899655;29;20477;-79
2022/04/27 05:00:56;;;;;;;4.70;2.40;;;8.10;58.80;;;;;;4878511;29;20071;-79
2022/04/27 05:03:22;;;;;;;4.87;2.90;;;8.10;59.00;;;;;;4896275;29;20173;-79
2022/04/27 05:05:47;;;;;;;4.28;2.50;;;8.10;59.10;;;;;;4890486;29;20195;-79
2022/04/27 05:08:13;;;;;;;4.87;2.70;;;8.20;59.30;;;;;;4903517;29;20036;-80
2022/04/27 05:10:39;;;;;;;4.45;2.60;;;8.20;59.40;;;;;;4875968;29;20115;-79
2022/04/27 05:13:05;;;;;;;5.07;2.90;;;8.30;59.50;;;;;;4892979;29;20044;-81
2022/04/27 05:15:31;;;;;;;5.20;2.40;;;8.30;59.70;;;;;;4891281;29;20040;-81
2022/04/27 05:17:57;;;;;;;4.87;2.70;;;8.30;59.60;;;;;;4894888;29;20275;-82
2022/04/27 05:20:23;;;;;;;4.20;2.63;;;8.30;59.70;;;;;;4912676;29;20517;-81
2022/04/27 05:22:48;;;;;;;4.43;2.30;;;8.40;60.50;;;;;;4885197;29;20036;-81
2022/04/27 05:25:14;;;;;;;5.30;2.60;;;8.40;59.80;;;;;;4896467;29;20286;-80
2022/04/27 05:27:40;;;;;;;4.50;2.53;;;8.40;60.60;;;;;;4882969;29;20146;-79
2022/04/27 05:32:52;;;;;;;5.97;2.97;;;8.50;60.00;;;;;;4885916;29;20036;-80
2022/04/27 05:35:17;;;;;;;5.03;2.85;;;8.60;60.10;;;;;;4907272;29;20684;-79
2022/04/27 05:37:43;;;;;;;7.60;3.20;;;8.60;60.20;;;;;;4876003;29;20036;-80
2022/04/27 05:40:10;;;;;;;5.18;2.88;;;8.70;60.30;;;;;;4890957;29;20044;-79
2022/04/27 05:42:36;;;;;;;5.28;2.50;;;8.70;60.40;;;;;;4889106;29;20044;-79
2022/04/27 05:45:03;;;;;;;5.37;3.07;;;8.70;60.40;;;;;;4897132;29;20028;-79
2022/04/27 05:47:29;;;;;;;4.30;2.70;;;8.80;60.90;;;;;;4882580;29;20036;-79
2022/04/27 05:49:55;;;;;;;5.53;2.80;;;8.80;60.70;;;;;;4919525;28;20044;-79
2022/04/27 05:52:21;;;;;;;5.07;2.47;;;8.90;60.90;;;;;;4879680;29;20087;-80
2022/04/27 05:54:48;;;;;;;4.55;2.70;;;8.90;60.80;;;;;;4885893;29;20732;-79
2022/04/27 05:57:13;;;;;;;6.18;2.90;;;9.00;61.10;;;;;;4874694;29;20099;-80
2022/04/27 05:59:39;;;;;;;5.03;3.00;;;9.00;61.10;;;;;;4879339;29;20040;-79
2022/04/27 06:02:05;;;;;;;5.38;2.83;;;9.10;61.10;;;;;;4894526;29;20091;-80
2022/04/27 06:04:30;;;;;;;5.60;3.03;;;9.20;61.30;;;;;;4888694;29;20052;-79
2022/04/27 06:06:56;;;;;;;5.53;2.87;;;9.30;61.40;;;;;;4882831;29;21186;-79
2022/04/27 06:09:22;;;;;;;5.43;2.90;;;9.40;61.60;;;;;;4893671;29;20048;-79
2022/04/27 06:11:48;;;;;;;5.00;2.88;;;9.50;61.50;;;;;;4862800;29;20108;-79
2022/04/27 06:14:13;;;;;;;4.43;2.88;;;9.50;61.60;;;;;;4893081;29;20032;-82
2022/04/27 06:16:39;;;;;;;4.40;2.50;;;9.60;61.50;;;;;;4885967;29;20028;-80
2022/04/27 06:19:05;;;;;;;4.33;2.67;;;9.70;61.50;;;;;;4875494;29;20086;-79
2022/04/27 06:21:31;;;;;;;4.82;2.70;;;9.80;61.70;;;;;;4897906;29;20429;-79
2022/04/27 06:24:00;;;;;;;4.43;2.35;;;9.90;61.50;;;;;;4886244;29;20149;-79
2022/04/27 06:26:26;;;;;;;4.93;3.13;;;10.00;61.70;;;;;;4883476;29;20040;-79
2022/04/27 06:28:52;;;;;;;4.00;2.60;;;10.10;61.90;;;;;;4879992;29;20589;-79
2022/04/27 06:31:18;;;;;;;4.10;2.60;;;10.20;61.70;;;;;;4890489;29;20726;-80
2022/04/27 06:33:44;;;;;;;5.15;2.88;;;10.30;61.80;;;;;;4884837;29;20047;-79
2022/04/27 06:36:10;;;;;;;3.92;2.53;;;10.40;61.40;;;;;;4896502;29;20215;-80
2022/04/27 06:38:36;;;;;;;5.70;2.50;;;10.50;61.30;;;;;;4878726;29;20039;-80
2022/04/27 06:41:02;;;;;;;5.07;2.70;;;10.60;61.40;;;;;;4893844;29;20742;-80
2022/04/27 06:43:27;;;;;;;4.40;2.70;;;10.70;61.50;;;;;;4877489;29;20056;-80
2022/04/27 06:45:53;;;;;;;4.60;2.93;;;10.80;61.20;;;;;;4895426;29;20237;-79
2022/04/27 06:48:19;;;;;;;4.78;2.78;;;11.00;61.20;;;;;;4885491;29;20032;-79
2022/04/27 06:50:45;;;;;;;4.73;2.77;;;11.10;61.00;;;;;;4878453;29;20309;-79
2022/04/27 06:53:10;;;;;;;5.15;2.58;;;11.20;61.20;;;;;;4891964;29;20119;-80
2022/04/27 06:55:37;;;;;;;3.87;2.47;;;11.30;61.10;;;;;;4884433;29;20067;-80
2022/04/27 06:58:03;;;;;;;4.70;2.72;;;11.40;60.90;;;;;;4886556;29;20032;-80
2022/04/27 07:00:29;;;;;;;4.05;2.55;;;11.60;61.30;;;;;;4880834;29;20036;-80
2022/04/27 07:02:55;;;;;;;4.07;2.40;;;11.70;61.40;;;;;;4886612;29;20044;-81
2022/04/27 07:05:23;;;;;;;4.25;2.70;;;11.90;61.60;;;;;;4890527;29;20114;-81
2022/04/27 07:07:49;;;;;;;5.25;2.58;;;12.10;61.70;;;;;;4892841;29;20621;-81
2022/04/27 07:10:16;;;;;;;4.87;2.90;;;12.40;61.90;;;;;;4892165;29;20040;-81
2022/04/27 07:12:42;;;;;;;4.88;2.60;;;12.60;62.20;;;;;;4880071;29;20753;-81
2022/04/27 07:15:09;;;;;;;3.58;2.45;;;12.90;62.00;;;;;;4879472;29;20111;-81
2022/04/27 07:17:35;;;;;;;4.72;2.42;;;13.20;61.80;;;;;;4903187;29;20695;-81
2022/04/27 07:20:00;;;;;;;3.90;2.47;;;13.50;61.40;;;;;;4904800;29;20048;-81
2022/04/27 07:22:26;;;;;;;4.38;2.42;;;13.80;61.30;;;;;;4894484;29;20103;-81
2022/04/27 07:24:52;;;;;;;3.65;2.45;;;14.10;61.40;;;;;;4891664;29;20040;-81
2022/04/27 07:27:18;;;;;;;4.83;2.63;;;14.40;61.30;;;;;;4885482;29;20074;-81
2022/04/27 07:29:44;;;;;;;4.32;2.85;;;14.70;61.20;;;;;;4914519;29;20292;-81
2022/04/27 07:32:09;;;;;;;4.80;2.80;;;15.00;60.40;;;;;;4884271;29;20054;-81
2022/04/27 07:34:35;;;;;;;5.55;3.00;;;15.30;59.80;;;;;;4899165;29;20328;-81
2022/04/27 07:37:02;;;;;;;4.88;2.63;;;15.50;59.30;;;;;;4897652;29;20374;-81
2022/04/27 07:39:29;;;;;;;5.00;2.67;;;15.70;59.00;;;;;;4886426;29;20036;-80
2022/04/27 07:41:55;;;;;;;4.30;2.53;;;15.90;58.50;;;;;;4892081;29;20032;-81
2022/04/27 07:44:20;;;;;;;4.25;2.53;;;16.10;58.30;;;;;;4886465;29;20429;-81
2022/04/27 07:46:49;;;;;;;5.57;2.67;;;16.30;58.40;;;;;;4879625;29;20295;-81
2022/04/27 07:49:19;;;;;;;4.07;2.60;;;16.50;58.50;;;;;;4915392;29;20036;-81
2022/04/27 07:51:46;;;;;;;2.97;2.03;;;16.70;58.20;;;;;;4889009;29;20639;-81
2022/04/27 07:54:12;;;;;;;4.70;2.63;;;16.90;58.20;;;;;;4913094;29;20064;-81
2022/04/27 07:56:38;;;;;;;3.93;2.53;;;17.20;57.80;;;;;;4897891;29;20135;-81
2022/04/27 07:59:04;;;;;;;5.40;2.50;;;17.50;57.50;;;;;;4894759;29;20042;-81
2022/04/27 08:01:30;;;;;;;3.83;2.30;;;17.80;57.60;;;;;;4893762;29;20092;-81
2022/04/27 08:03:56;;;;;;;2.60;2.00;;;18.10;58.10;;;;;;4919677;28;20029;-81
2022/04/27 08:06:22;;;;;;;3.30;2.30;;;18.40;58.20;;;;;;4897308;29;20034;-81
2022/04/27 08:08:48;;;;;;;3.43;2.13;;;18.80;58.30;;;;;;4897544;29;20505;-81
2022/04/27 08:11:15;;;;;;;2.60;2.00;;;19.30;58.40;;;;;;4896123;29;20289;-81
2022/04/27 08:13:44;;;;;;;2.03;1.65;;;19.80;58.40;;;;;;4887182;29;20251;-81
2022/04/27 08:16:11;;;;;;;2.75;1.95;;;20.30;58.00;;;;;;4904303;29;20555;-81
2022/04/27 08:18:40;;;;;;;4.23;2.00;;;20.80;56.70;;;;;;4886391;29;20695;-81
2022/04/27 08:21:15;;;;;;;2.58;1.92;;;21.30;56.10;;;;;;4897782;29;20036;-82
2022/04/27 08:23:45;;;;;;;5.55;2.15;;;21.70;55.60;;;;;;4898200;29;20062;-81
2022/04/27 08:26:12;;;;;;;3.13;2.00;;;22.20;54.50;;;;;;4903981;29;20035;-81
2022/04/27 08:28:38;;;;;;;2.60;1.85;;;22.60;53.70;;;;;;4893368;29;20043;-81
2022/04/27 08:31:04;;;;;;;3.70;1.80;;;22.90;53.00;;;;;;4904789;29;20135;-81
2022/04/27 08:33:31;;;;;;;2.40;1.80;;;23.20;51.90;;;;;;4872761;29;20752;-81
2022/04/27 08:36:00;;;;;;;2.85;1.92;;;23.50;50.60;;;;;;4904394;29;20203;-81
2022/04/27 08:38:27;;;;;;;2.72;1.90;;;23.80;50.10;;;;;;4882419;29;20681;-81
2022/04/27 08:40:53;;;;;;;2.53;1.70;;;24.10;49.80;;;;;;4893517;29;20036;-82
2022/04/27 08:43:21;;;;;;;2.30;1.87;;;24.30;49.30;;;;;;4890315;29;20048;-81
2022/04/27 08:45:47;;;;;;;4.47;1.90;;;24.50;47.80;;;;;;4904435;29;20050;-81
2022/04/27 08:48:16;;;;;;;2.92;2.15;;;24.70;47.80;;;;;;4909930;29;20040;-82
2022/04/27 08:50:41;;;;;;;2.67;1.90;;;25.00;47.00;;;;;;4877810;29;20047;-82
2022/04/27 08:53:07;;;;;;;2.90;2.10;;;25.20;46.80;;;;;;4909337;29;20035;-82
2022/04/27 08:55:36;;;;;;;2.53;1.90;;;25.40;46.60;;;;;;4892660;29;20040;-82
2022/04/27 08:58:14;;;;;;;3.80;2.05;;;25.60;45.30;;;;;;4875855;29;20127;-82
2022/04/27 09:00:44;;;;;;;2.72;1.75;;;25.80;43.50;;;;;;4886887;29;20036;-82
2022/04/27 09:03:32;;;;;;;3.13;1.73;;;26.00;44.90;;;;;;4895337;29;20050;-82
2022/04/27 09:06:00;;;;;;;2.60;1.87;;;26.20;41.60;;;;;;4876106;29;20048;-82
2022/04/27 09:08:47;;;;;;;3.20;2.00;;;26.50;44.00;;;;;;4899268;29;20079;-82
2022/04/27 09:11:16;;;;;;;3.70;1.80;;;26.70;40.40;;;;;;4888522;29;20050;-82
2022/04/27 09:13:51;;;;;;;2.90;1.80;;;26.90;42.80;;;;;;4896186;29;20111;-82
2022/04/27 09:16:18;;;;;;;3.53;1.90;;;27.00;41.20;;;;;;4887762;29;20473;-82
2022/04/27 09:21:53;;;;;;;2.70;2.00;;;27.30;40.20;;;;;;4880150;29;20064;-83
2022/04/27 09:24:19;;;;;;;3.75;2.00;;;27.50;40.20;;;;;;4901915;29;20036;-82
2022/04/27 09:26:48;;;;;;;3.03;1.80;;;27.70;40.90;;;;;;4895310;29;20044;-83
2022/04/27 09:29:26;;;;;;;3.45;1.73;;;27.80;40.40;;;;;;4897176;29;20573;-82
2022/04/27 09:31:58;;;;;;;2.97;2.00;;;28.10;38.00;;;;;;4887017;29;20048;-82
2022/04/27 09:34:28;;;;;;;2.42;1.90;;;28.30;39.00;;;;;;4899081;29;20044;-82
2022/04/27 09:37:02;;;;;;;2.45;2.00;;;28.50;39.40;;;;;;4912426;28;20059;-82
2022/04/27 09:39:28;;;;;;;3.42;2.20;;;28.70;37.10;;;;;;4891882;29;20064;-83
2022/04/27 09:42:03;;;;;;;2.72;2.15;;;28.90;38.20;;;;;;4894411;29;20143;-82
2022/04/27 09:44:31;;;;;;;2.27;2.00;;;29.10;36.00;;;;;;4891985;29;20481;-82
2022/04/27 09:46:58;;;;;;;2.58;2.00;;;29.20;37.00;;;;;;4885471;29;20032;-83
2022/04/27 09:49:24;;;;;;;4.78;2.13;;;29.30;37.10;;;;;;4898751;29;20033;-82
2022/04/27 09:51:55;;;;;;;2.83;2.20;;;29.40;36.30;;;;;;4915703;29;20174;-83
2022/04/27 09:54:25;;;;;;;3.20;2.20;;;29.50;35.20;;;;;;4888761;29;20134;-83
2022/04/27 09:56:59;;;;;;;2.83;2.00;;;29.60;35.50;;;;;;4897723;29;20796;-83
2022/04/27 09:59:38;;;;;;;3.08;2.20;;;29.60;34.00;;;;;;4895405;29;20074;-82
2022/04/27 10:02:10;;;;;;;2.15;1.85;;;29.70;33.90;;;;;;4919644;28;20048;-83
2022/04/27 10:04:37;;;;;;;3.08;2.20;;;29.80;34.50;;;;;;4905144;29;20032;-82
2022/04/27 10:07:07;;;;;;;3.25;2.13;;;29.90;34.90;;;;;;4888806;29;20044;-82
2022/04/27 10:09:33;;;;;;;3.77;2.20;;;30.10;34.00;;;;;;4876209;29;20126;-82
2022/04/27 10:12:03;;;;;;;2.53;2.30;;;30.20;33.90;;;;;;4903832;29;20044;-83
2022/04/27 10:14:29;;;;;;;2.90;2.00;;;30.40;33.70;;;;;;4902464;29;20066;-83
2022/04/27 10:16:56;;;;;;;2.65;2.00;;;30.50;34.20;;;;;;4906545;29;20070;-83
2022/04/27 10:19:22;;;;;;;2.85;2.28;;;30.70;33.90;;;;;;4898879;29;20024;-82
2022/04/27 10:21:58;;;;;;;2.40;2.20;;;30.80;33.80;;;;;;4902055;29;20056;-82
2022/04/27 10:24:38;;;;;;;3.45;2.30;;;30.90;32.40;;;;;;4882073;29;20044;-83
2022/04/27 10:27:15;;;;;;;3.03;2.17;;;31.00;30.20;;;;;;4905295;29;20044;-82
2022/04/27 10:29:44;;;;;;;3.00;2.03;;;31.00;30.60;;;;;;4901046;29;20247;-82
2022/04/27 10:32:10;;;;;;;2.33;1.90;;;31.10;32.10;;;;;;4891422;29;20072;-83
2022/04/27 10:34:35;;;;;;;2.50;2.30;;;31.20;32.50;;;;;;4899530;29;20498;-82
2022/04/27 10:37:03;;;;;;;3.95;2.22;;;31.40;31.90;;;;;;4901087;29;20044;-80
2022/04/27 10:39:35;;;;;;;3.53;2.30;;;31.60;31.80;;;;;;4877673;29;20115;-80
2022/04/27 10:42:03;;;;;;;3.30;2.25;;;31.70;30.30;;;;;;4904419;29;20056;-80
2022/04/27 10:44:53;;;;;;;2.50;2.30;;;31.80;30.30;;;;;;4886070;29;20071;-80
2022/04/27 10:47:21;;;;;;;3.25;2.70;;;31.90;30.10;;;;;;4893530;29;20520;-79
2022/04/27 10:49:51;;;;;;;2.30;2.00;;;31.90;30.00;;;;;;4871558;29;20103;-80
2022/04/27 10:52:23;;;;;;;2.77;2.40;;;31.80;29.80;;;;;;4893893;29;20548;-81
2022/04/27 10:54:48;;;;;;;3.60;2.47;;;31.70;28.60;;;;;;4880456;29;20052;-83
2022/04/27 10:57:14;;;;;;;3.28;2.42;;;31.60;29.50;;;;;;4897995;29;20040;-80
2022/04/27 10:59:59;;;;;;;2.83;2.60;;;31.60;29.60;;;;;;4904263;29;20179;-80
2022/04/27 11:02:33;;;;;;;4.55;2.45;;;31.70;28.70;;;;;;4870107;29;20036;-80
2022/04/27 11:05:04;;;;;;;4.57;2.42;;;31.80;29.30;;;;;;4871644;29;20056;-80
2022/04/27 11:07:40;;;;;;;3.50;2.47;;;31.80;29.20;;;;;;4885634;29;20566;-79
2022/04/27 11:10:17;;;;;;;3.00;2.53;;;31.90;28.90;;;;;;4888767;29;20097;-80
2022/04/27 11:12:48;;;;;;;3.85;2.40;;;32.00;28.30;;;;;;4895087;29;20040;-81
2022/04/27 11:15:22;;;;;;;3.38;2.75;;;32.10;28.50;;;;;;4887857;29;20060;-80
2022/04/27 11:17:56;;;;;;;2.95;2.65;;;32.20;28.90;;;;;;4895954;29;20056;-81
2022/04/27 11:20:28;;;;;;;2.97;2.40;;;32.30;28.40;;;;;;4873227;29;20437;-81
2022/04/27 11:22:54;;;;;;;3.63;2.50;;;32.40;28.90;;;;;;4895899;29;20037;-80
2022/04/27 11:25:31;;;;;;;2.80;2.35;;;32.70;29.00;;;;;;4895474;29;20040;-80
2022/04/27 11:27:59;;;;;;;4.70;2.88;;;32.90;27.70;;;;;;4881694;29;20439;-81
2022/04/27 11:30:25;;;;;;;2.80;2.42;;;33.10;28.20;;;;;;4871896;29;20037;-80
2022/04/27 11:32:52;;;;;;;4.28;2.75;;;33.20;27.90;;;;;;4890291;29;20046;-80
2022/04/27 11:35:23;;;;;;;3.83;2.70;;;33.20;27.90;;;;;;4894212;29;20036;-81
2022/04/27 11:37:53;;;;;;;3.63;3.05;;;33.20;27.90;;;;;;4882980;29;20028;-81
2022/04/27 11:40:25;;;;;;;4.38;2.90;;;33.10;27.30;;;;;;4897781;29;20047;-81
2022/04/27 11:42:51;;;;;;;2.85;2.55;;;33.10;27.20;;;;;;4882109;29;20072;-80
2022/04/27 11:45:22;;;;;;;3.65;2.50;;;33.00;27.20;;;;;;4905616;29;20036;-80
2022/04/27 11:48:05;;;;;;;3.23;2.70;;;32.90;26.60;;;;;;4896585;29;20496;-80
2022/04/27 11:50:36;;;;;;;2.92;2.45;;;32.90;26.00;;;;;;4902749;29;20412;-80
2022/04/27 11:53:05;;;;;;;2.80;2.38;;;32.80;26.40;;;;;;4877722;29;20289;-81
2022/04/27 11:55:33;;;;;;;2.58;2.38;;;32.70;26.80;;;;;;4897643;29;20510;-81
2022/04/27 11:57:59;;;;;;;3.05;2.50;;;32.70;26.60;;;;;;4873813;29;20660;-81
2022/04/27 12:00:27;;;;;;;3.13;2.40;;;32.80;27.10;;;;;;4894721;29;20091;-81
2022/04/27 12:03:03;;;;;;;2.78;2.33;;;33.00;27.20;;;;;;4908486;29;20033;-81
2022/04/27 12:05:38;;;;;;;3.58;2.70;;;33.20;27.30;;;;;;4908188;29;20042;-81
2022/04/27 12:08:09;;;;;;;3.22;2.90;;;33.50;25.90;;;;;;4884898;29;20639;-82
2022/04/27 12:10:46;;;;;;;3.25;2.83;;;33.60;26.70;;;;;;4901075;29;20135;-81
2022/04/27 12:13:13;;;;;;;4.33;2.70;;;33.80;25.90;;;;;;4883631;29;20499;-81
2022/04/27 12:15:42;;;;;;;3.72;2.67;;;33.90;26.60;;;;;;4879963;29;20073;-81
2022/04/27 12:18:17;;;;;;;3.55;2.40;;;34.00;26.40;;;;;;4894868;29;20036;-80
2022/04/27 12:20:45;;;;;;;4.55;2.70;;;34.20;25.70;;;;;;4902488;29;20044;-81
2022/04/27 12:23:13;;;;;;;3.28;2.90;;;34.30;26.20;;;;;;4890889;29;20410;-80
2022/04/27 12:25:45;;;;;;;3.23;2.93;;;34.30;25.90;;;;;;4909889;29;20046;-81
2022/04/27 12:28:16;;;;;;;3.65;2.78;;;34.30;25.70;;;;;;4906459;29;20227;-81
2022/04/27 12:30:49;;;;;;;3.45;2.70;;;34.30;25.10;;;;;;4872716;29;20040;-81
2022/04/27 12:33:16;;;;;;;3.75;2.70;;;34.40;25.50;;;;;;4893444;29;20056;-83
2022/04/27 12:38:27;;;;;;;3.07;2.57;;;34.20;24.90;;;;;;4891938;29;20100;-80
2022/04/27 12:40:53;;;;;;;2.85;2.53;;;34.20;25.10;;;;;;4890498;29;20512;-81
2022/04/27 12:43:20;;;;;;;3.40;2.60;;;34.00;24.90;;;;;;4895440;29;20139;-80
2022/04/27 12:46:22;;;;;;;3.25;2.60;;;33.90;25.00;;;;;;4878729;29;20139;-80
2022/04/27 12:49:03;;;;;;;4.67;2.90;;;33.70;24.60;;;;;;4874942;29;20036;-81
2022/04/27 12:51:29;;;;;;;3.40;2.90;;;33.60;24.10;;;;;;4904021;29;20036;-81
2022/04/27 12:53:57;;;;;;;3.20;2.55;;;33.40;24.90;;;;;;4886212;29;20192;-80
2022/04/27 12:56:34;;;;;;;2.92;2.50;;;33.20;25.00;;;;;;4898458;29;20028;-82
2022/04/27 12:59:10;;;;;;;3.00;2.70;;;33.20;24.90;;;;;;4881095;29;20079;-81
2022/04/27 13:01:36;;;;;;;2.97;2.47;;;33.20;24.70;;;;;;4880937;29;20044;-82
2022/04/27 13:04:02;;;;;;;3.33;2.67;;;33.30;25.70;;;;;;4883289;29;20048;-80
2022/04/27 13:06:31;;;;;;;3.45;2.70;;;33.50;25.60;;;;;;4897988;29;20044;-81
2022/04/27 13:11:57;;;;;;;4.13;2.77;;;33.60;24.70;;;;;;4888320;29;20073;-80